^^
Meteo Knjazevac Station Historical Data
Daily Summary for March 26, 2021 Units:  Both    English   Metric
Daily Weekly Monthly Yearly Custom
  High: Low: Average:
Temperature: 82 °F /  27.8 °C 60.1 °F /  15.6 °C 66.2 °F /  19 °C
Dew Point: 64.3 °F /  17.9 °C 57.1 °F /  13.9 °C 59.6 °F /  15.3 °C
Humidity: 91% 53% 81%
Wind Speed: 8mph /  12.9km/h - 3.1mph /  5km/h
Wind Gust: 15mph /  24.1km/h - -
Wind- - SW
Pressure: 30.06 in /  1017.8 hPa 29.91 in /  1012.8 hPa -
Precipitation: 0.00 in /  0 mm    
Historical Graphs
 
 
Tabular Data for March 26, 2021
Time Temperature Dew Point Pressure Wind Wind Speed Wind Gust Humidity Rainfall Rate (Hourly) solar Conditions
00:00 62.4 °F /  16.9 °C 58.8 °F /  14.9 °C 30.06in /  1017.8hPa WSW 2mph /  3.2km/h 6mph /  9.7km/h 88% 0.00in /  0mm 0 W/m2
00:10 62.4 °F /  16.9 °C 58.8 °F /  14.9 °C 30.06in /  1017.8hPa WSW 1mph /  1.6km/h 4mph /  6.4km/h 88% 0.00in /  0mm 0 W/m2
00:20 62.2 °F /  16.8 °C 58.6 °F /  14.8 °C 30.06in /  1017.8hPa West 2mph /  3.2km/h 5mph /  8km/h 88% 0.00in /  0mm 0 W/m2
00:30 61.9 °F /  16.6 °C 58.6 °F /  14.8 °C 30.06in /  1017.8hPa WSW 2mph /  3.2km/h 5mph /  8km/h 89% 0.00in /  0mm 0 W/m2
00:40 61.7 °F /  16.5 °C 58.4 °F /  14.7 °C 30.05in /  1017.5hPa SW 3mph /  4.8km/h 5mph /  8km/h 89% 0.00in /  0mm 0 W/m2
00:50 61.5 °F /  16.4 °C 58.2 °F /  14.6 °C 30.05in /  1017.5hPa WSW 2mph /  3.2km/h 4mph /  6.4km/h 89% 0.00in /  0mm 0 W/m2
01:00 61.5 °F /  16.4 °C 58.2 °F /  14.6 °C 30.05in /  1017.5hPa SW 2mph /  3.2km/h 5mph /  8km/h 89% 0.00in /  0mm 0 W/m2
01:10 61.5 °F /  16.4 °C 58.2 °F /  14.6 °C 30.05in /  1017.5hPa SSW 2mph /  3.2km/h 3mph /  4.8km/h 89% 0.00in /  0mm 0 W/m2
01:20 61.3 °F /  16.3 °C 58.1 °F /  14.5 °C 30.04in /  1017.2hPa SW 1mph /  1.6km/h 3mph /  4.8km/h 89% 0.00in /  0mm 0 W/m2
01:30 61.3 °F /  16.3 °C 58.1 °F /  14.5 °C 30.04in /  1017.2hPa SW 2mph /  3.2km/h 3mph /  4.8km/h 89% 0.00in /  0mm 0 W/m2
01:40 61.3 °F /  16.3 °C 58.1 °F /  14.5 °C 30.05in /  1017.5hPa SW 2mph /  3.2km/h 4mph /  6.4km/h 89% 0.00in /  0mm 0 W/m2
01:50 61.3 °F /  16.3 °C 58.1 °F /  14.5 °C 30.05in /  1017.5hPa SW 2mph /  3.2km/h 4mph /  6.4km/h 89% 0.00in /  0mm 0 W/m2
02:00 61.3 °F /  16.3 °C 58.1 °F /  14.5 °C 30.05in /  1017.5hPa WSW 1mph /  1.6km/h 4mph /  6.4km/h 89% 0.00in /  0mm 0 W/m2
02:10 61.3 °F /  16.3 °C 58.1 °F /  14.5 °C 30.05in /  1017.5hPa SW 5mph /  8km/h 6mph /  9.7km/h 89% 0.00in /  0mm 0 W/m2
02:20 61.3 °F /  16.3 °C 58.1 °F /  14.5 °C 30.04in /  1017.2hPa SW 2mph /  3.2km/h 5mph /  8km/h 89% 0.00in /  0mm 0 W/m2
02:30 61.3 °F /  16.3 °C 58.1 °F /  14.5 °C 30.04in /  1017.2hPa SSW 2mph /  3.2km/h 5mph /  8km/h 89% 0.00in /  0mm 0 W/m2
02:40 61.2 °F /  16.2 °C 57.9 °F /  14.4 °C 30.04in /  1017.2hPa SW 2mph /  3.2km/h 5mph /  8km/h 89% 0.00in /  0mm 0 W/m2
02:50 61.2 °F /  16.2 °C 57.9 °F /  14.4 °C 30.04in /  1017.2hPa SW 2mph /  3.2km/h 5mph /  8km/h 89% 0.00in /  0mm 0 W/m2
03:00 61.2 °F /  16.2 °C 57.9 °F /  14.4 °C 30.03in /  1016.8hPa SW 1mph /  1.6km/h 4mph /  6.4km/h 89% 0.00in /  0mm 0 W/m2
03:10 61.2 °F /  16.2 °C 57.9 °F /  14.4 °C 30.03in /  1016.8hPa SW 2mph /  3.2km/h 6mph /  9.7km/h 89% 0.00in /  0mm 0 W/m2
03:20 61 °F /  16.1 °C 57.7 °F /  14.3 °C 30.03in /  1016.8hPa SSW 2mph /  3.2km/h 5mph /  8km/h 89% 0.00in /  0mm 0 W/m2
03:30 60.9 °F /  16.1 °C 57.7 °F /  14.3 °C 30.03in /  1016.8hPa SSW 2mph /  3.2km/h 4mph /  6.4km/h 89% 0.00in /  0mm 0 W/m2
03:40 60.8 °F /  16 °C 57.8 °F /  14.3 °C 30.03in /  1016.8hPa SW 3mph /  4.8km/h 5mph /  8km/h 90% 0.00in /  0mm 0 W/m2
03:50 60.4 °F /  15.8 °C 57.5 °F /  14.2 °C 30.04in /  1017.2hPa SW 3mph /  4.8km/h 5mph /  8km/h 90% 0.00in /  0mm 0 W/m2
04:00 60.3 °F /  15.7 °C 57.3 °F /  14.1 °C 30.03in /  1016.8hPa SW 2mph /  3.2km/h 5mph /  8km/h 90% 0.00in /  0mm 0 W/m2
04:10 60.1 °F /  15.6 °C 57.1 °F /  13.9 °C 30.03in /  1016.8hPa Calm   3mph /  4.8km/h 90% 0.00in /  0mm 0 W/m2
04:20 60.2 °F /  15.7 °C 57.6 °F /  14.2 °C 30.03in /  1016.8hPa SSE 1mph /  1.6km/h 2mph /  3.2km/h 91% 0.00in /  0mm 0 W/m2
04:30 60.3 °F /  15.7 °C 57.3 °F /  14.1 °C 30.02in /  1016.5hPa Calm   2mph /  3.2km/h 90% 0.00in /  0mm 0 W/m2
04:40 60.3 °F /  15.7 °C 57.3 °F /  14.1 °C 30.03in /  1016.8hPa Calm   2mph /  3.2km/h 90% 0.00in /  0mm 0 W/m2
04:50 60.3 °F /  15.7 °C 57.3 °F /  14.1 °C 30.03in /  1016.8hPa West 1mph /  1.6km/h 3mph /  4.8km/h 90% 0.00in /  0mm 0 W/m2
05:00 60.3 °F /  15.7 °C 57.3 °F /  14.1 °C 30.03in /  1016.8hPa West 1mph /  1.6km/h 2mph /  3.2km/h 90% 0.00in /  0mm 0 W/m2
05:10 60.3 °F /  15.7 °C 57.6 °F /  14.2 °C 30.03in /  1016.8hPa WSW 1mph /  1.6km/h 2mph /  3.2km/h 91% 0.00in /  0mm 0 W/m2
05:20 60.3 °F /  15.7 °C 57.3 °F /  14.1 °C 30.03in /  1016.8hPa SSW 2mph /  3.2km/h 4mph /  6.4km/h 90% 0.00in /  0mm 0 W/m2
05:30 60.3 °F /  15.7 °C 57.3 °F /  14.1 °C 30.02in /  1016.5hPa SSW 1mph /  1.6km/h 4mph /  6.4km/h 90% 0.00in /  0mm 0 W/m2
05:40 60.3 °F /  15.7 °C 57.4 °F /  14.1 °C 30.02in /  1016.5hPa East 1mph /  1.6km/h 3mph /  4.8km/h 90% 0.00in /  0mm 0 W/m2
05:50 60.4 °F /  15.8 °C 57.5 °F /  14.2 °C 30.02in /  1016.5hPa SE 1mph /  1.6km/h 2mph /  3.2km/h 90% 0.00in /  0mm 1 W/m2
06:00 60.5 °F /  15.8 °C 57.5 °F /  14.2 °C 30.02in /  1016.5hPa East 1mph /  1.6km/h 3mph /  4.8km/h 90% 0.00in /  0mm 3 W/m2
06:10 60.6 °F /  15.9 °C 57.7 °F /  14.3 °C 30.02in /  1016.5hPa SE 2mph /  3.2km/h 6mph /  9.7km/h 90% 0.00in /  0mm 10 W/m2
06:20 60.6 °F /  15.9 °C 57.4 °F /  14.1 °C 30.01in /  1016.1hPa Calm   5mph /  8km/h 89% 0.00in /  0mm 17 W/m2
06:30 60.6 °F /  15.9 °C 57.4 °F /  14.1 °C 30.01in /  1016.1hPa South 2mph /  3.2km/h 4mph /  6.4km/h 89% 0.00in /  0mm 25 W/m2
06:40 60.8 °F /  16 °C 57.5 °F /  14.2 °C 30.02in /  1016.5hPa SW 1mph /  1.6km/h 4mph /  6.4km/h 89% 0.00in /  0mm 43 W/m2
06:50 61 °F /  16.1 °C 57.7 °F /  14.3 °C 30.02in /  1016.5hPa SW 1mph /  1.6km/h 2mph /  3.2km/h 89% 0.00in /  0mm 36 W/m2
07:00 61.2 °F /  16.2 °C 57.9 °F /  14.4 °C 30.02in /  1016.5hPa SW 3mph /  4.8km/h 5mph /  8km/h 89% 0.00in /  0mm 25 W/m2
07:10 61.2 °F /  16.2 °C 57.9 °F /  14.4 °C 30.01in /  1016.1hPa SW 1mph /  1.6km/h 3mph /  4.8km/h 89% 0.00in /  0mm 50 W/m2
07:20 61.3 °F /  16.3 °C 58.1 °F /  14.5 °C 30.01in /  1016.1hPa SW 2mph /  3.2km/h 5mph /  8km/h 89% 0.00in /  0mm 46 W/m2
07:30 61.3 °F /  16.3 °C 58.1 °F /  14.5 °C 30.02in /  1016.5hPa SW 3mph /  4.8km/h 6mph /  9.7km/h 89% 0.00in /  0mm 37 W/m2
07:40 61.5 °F /  16.4 °C 58.2 °F /  14.6 °C 30.02in /  1016.5hPa SW 3mph /  4.8km/h 5mph /  8km/h 89% 0.00in /  0mm 52 W/m2
07:50 61.7 °F /  16.5 °C 58.1 °F /  14.5 °C 30.01in /  1016.1hPa SW 2mph /  3.2km/h 7mph /  11.3km/h 88% 0.00in /  0mm 86 W/m2
08:00 61.9 °F /  16.6 °C 58.3 °F /  14.6 °C 30.01in /  1016.1hPa SW 3mph /  4.8km/h 8mph /  12.9km/h 88% 0.00in /  0mm 127 W/m2
08:10 62.3 °F /  16.8 °C 58.7 °F /  14.8 °C 30.01in /  1016.1hPa SSW 2mph /  3.2km/h 5mph /  8km/h 88% 0.00in /  0mm 171 W/m2
08:20 62.7 °F /  17.1 °C 58.4 °F /  14.7 °C 30.02in /  1016.5hPa SSW 3mph /  4.8km/h 5mph /  8km/h 86% 0.00in /  0mm 136 W/m2
08:30 63 °F /  17.2 °C 58.4 °F /  14.7 °C 30.01in /  1016.1hPa SSW 3mph /  4.8km/h 7mph /  11.3km/h 85% 0.00in /  0mm 220 W/m2
08:40 63.5 °F /  17.5 °C 58.9 °F /  14.9 °C 30.01in /  1016.1hPa SSW 3mph /  4.8km/h 8mph /  12.9km/h 85% 0.00in /  0mm 289 W/m2
08:50 64 °F /  17.8 °C 59.1 °F /  15.1 °C 30.01in /  1016.1hPa SSW 3mph /  4.8km/h 7mph /  11.3km/h 84% 0.00in /  0mm 167 W/m2
09:00 64.2 °F /  17.9 °C 58.9 °F /  14.9 °C 30.01in /  1016.1hPa SSW 2mph /  3.2km/h 7mph /  11.3km/h 83% 0.00in /  0mm 189 W/m2
09:10 64.6 °F /  18.1 °C 59.3 °F /  15.2 °C 30.00in /  1015.8hPa SSW 2mph /  3.2km/h 6mph /  9.7km/h 83% 0.00in /  0mm 247 W/m2
09:20 64.9 °F /  18.3 °C 59.3 °F /  15.2 °C 30.00in /  1015.8hPa SW 5mph /  8km/h 7mph /  11.3km/h 82% 0.00in /  0mm 271 W/m2
09:30 65.5 °F /  18.6 °C 59.6 °F /  15.3 °C 30.00in /  1015.8hPa SW 3mph /  4.8km/h 8mph /  12.9km/h 81% 0.00in /  0mm 258 W/m2
09:40 65.7 °F /  18.7 °C 59.3 °F /  15.2 °C 30.01in /  1016.1hPa SW 5mph /  8km/h 9mph /  14.5km/h 80% 0.00in /  0mm 161 W/m2
09:50 65.7 °F /  18.7 °C 59.3 °F /  15.2 °C 30.01in /  1016.1hPa SW 5mph /  8km/h 9mph /  14.5km/h 80% 0.00in /  0mm 330 W/m2
10:00 66.4 °F /  19.1 °C 60.1 °F /  15.6 °C 30.00in /  1015.8hPa SW 7mph /  11.3km/h 13mph /  20.9km/h 80% 0.00in /  0mm 412 W/m2
10:10 66.9 °F /  19.4 °C 60.2 °F /  15.7 °C 30.00in /  1015.8hPa SW 7mph /  11.3km/h 12mph /  19.3km/h 79% 0.00in /  0mm 279 W/m2
10:20 67.2 °F /  19.6 °C 60.4 °F /  15.8 °C 30.00in /  1015.8hPa SW 5mph /  8km/h 10mph /  16.1km/h 79% 0.00in /  0mm 401 W/m2
10:30 67.5 °F /  19.7 °C 60.4 °F /  15.8 °C 30.00in /  1015.8hPa WSW 5mph /  8km/h 8mph /  12.9km/h 78% 0.00in /  0mm 273 W/m2
10:40 67.6 °F /  19.8 °C 60.5 °F /  15.8 °C 30.00in /  1015.8hPa SW 5mph /  8km/h 10mph /  16.1km/h 78% 0.00in /  0mm 396 W/m2
10:50 68.4 °F /  20.2 °C 60.9 °F /  16.1 °C 29.99in /  1015.5hPa SW 3mph /  4.8km/h 8mph /  12.9km/h 77% 0.00in /  0mm 550 W/m2
11:00 69.4 °F /  20.8 °C 61.2 °F /  16.2 °C 29.99in /  1015.5hPa WSW 5mph /  8km/h 8mph /  12.9km/h 75% 0.00in /  0mm 368 W/m2
11:10 69.7 °F /  20.9 °C 61 °F /  16.1 °C 29.99in /  1015.5hPa SW 3mph /  4.8km/h 8mph /  12.9km/h 74% 0.00in /  0mm 335 W/m2
11:20 70.2 °F /  21.2 °C 61.5 °F /  16.4 °C 29.99in /  1015.5hPa SW 3mph /  4.8km/h 7mph /  11.3km/h 74% 0.00in /  0mm 322 W/m2
11:30 70.5 °F /  21.4 °C 61.4 °F /  16.3 °C 29.99in /  1015.5hPa WSW 5mph /  8km/h 8mph /  12.9km/h 73% 0.00in /  0mm 209 W/m2
11:40 70.5 °F /  21.4 °C 61.4 °F /  16.3 °C 29.99in /  1015.5hPa SW 6mph /  9.7km/h 10mph /  16.1km/h 73% 0.00in /  0mm 387 W/m2
11:50 71.6 °F /  22 °C 62.4 °F /  16.9 °C 29.98in /  1015.1hPa WSW 6mph /  9.7km/h 8mph /  12.9km/h 73% 0.00in /  0mm 655 W/m2
12:00 72.9 °F /  22.7 °C 62.6 °F /  17 °C 29.97in /  1014.8hPa SW 3mph /  4.8km/h 9mph /  14.5km/h 70% 0.00in /  0mm 850 W/m2
12:10 73.9 °F /  23.3 °C 62.7 °F /  17.1 °C 29.97in /  1014.8hPa SW 5mph /  8km/h 9mph /  14.5km/h 68% 0.00in /  0mm 499 W/m2
12:20 74.2 °F /  23.4 °C 62.9 °F /  17.2 °C 29.97in /  1014.8hPa SW 3mph /  4.8km/h 12mph /  19.3km/h 68% 0.00in /  0mm 856 W/m2
12:30 75.1 °F /  23.9 °C 63.4 °F /  17.4 °C 29.97in /  1014.8hPa WSW 3mph /  4.8km/h 8mph /  12.9km/h 67% 0.00in /  0mm 830 W/m2
12:40 75.2 °F /  24 °C 62.6 °F /  17 °C 29.97in /  1014.8hPa South 1mph /  1.6km/h 8mph /  12.9km/h 65% 0.00in /  0mm 351 W/m2
12:50 75.6 °F /  24.2 °C 63 °F /  17.2 °C 29.96in /  1014.4hPa ESE 2mph /  3.2km/h 6mph /  9.7km/h 65% 0.00in /  0mm 854 W/m2
13:00 76.9 °F /  24.9 °C 63.3 °F /  17.4 °C 29.96in /  1014.4hPa SSW 6mph /  9.7km/h 10mph /  16.1km/h 63% 0.00in /  0mm 850 W/m2
13:10 78 °F /  25.6 °C 63.4 °F /  17.4 °C 29.96in /  1014.4hPa SSW 6mph /  9.7km/h 10mph /  16.1km/h 61% 0.00in /  0mm 845 W/m2
13:20 78.3 °F /  25.7 °C 63.2 °F /  17.3 °C 29.96in /  1014.4hPa SSW 7mph /  11.3km/h 10mph /  16.1km/h 60% 0.00in /  0mm 817 W/m2
13:30 78.7 °F /  25.9 °C 63.6 °F /  17.6 °C 29.95in /  1014.1hPa SW 6mph /  9.7km/h 11mph /  17.7km/h 60% 0.00in /  0mm 829 W/m2
13:40 79.3 °F /  26.3 °C 64.2 °F /  17.9 °C 29.95in /  1014.1hPa WSW 5mph /  8km/h 9mph /  14.5km/h 60% 0.00in /  0mm 393 W/m2
13:50 79.9 °F /  26.6 °C 64.3 °F /  17.9 °C 29.95in /  1014.1hPa WSW 5mph /  8km/h 12mph /  19.3km/h 59% 0.00in /  0mm 807 W/m2
14:00 79.9 °F /  26.6 °C 63.8 °F /  17.7 °C 29.94in /  1013.8hPa SW 7mph /  11.3km/h 12mph /  19.3km/h 58% 0.00in /  0mm 794 W/m2
14:10 80.2 °F /  26.8 °C 64.1 °F /  17.8 °C 29.94in /  1013.8hPa SW 7mph /  11.3km/h 11mph /  17.7km/h 58% 0.00in /  0mm 779 W/m2
14:20 80.6 °F /  27 °C 63.5 °F /  17.5 °C 29.93in /  1013.4hPa SW 7mph /  11.3km/h 11mph /  17.7km/h 56% 0.00in /  0mm 763 W/m2
14:30 81.1 °F /  27.3 °C 63.4 °F /  17.4 °C 29.93in /  1013.4hPa SW 5mph /  8km/h 12mph /  19.3km/h 55% 0.00in /  0mm 746 W/m2
14:40 81.5 °F /  27.5 °C 63.3 °F /  17.4 °C 29.92in /  1013.1hPa SW 5mph /  8km/h 12mph /  19.3km/h 54% 0.00in /  0mm 727 W/m2
14:50 81.9 °F /  27.7 °C 63.7 °F /  17.6 °C 29.92in /  1013.1hPa WSW 6mph /  9.7km/h 15mph /  24.1km/h 54% 0.00in /  0mm 707 W/m2
15:00 82 °F /  27.8 °C 63.8 °F /  17.7 °C 29.92in /  1013.1hPa SW 6mph /  9.7km/h 13mph /  20.9km/h 54% 0.00in /  0mm 685 W/m2
15:10 82 °F /  27.8 °C 63.2 °F /  17.3 °C 29.91in /  1012.8hPa SW 8mph /  12.9km/h 13mph /  20.9km/h 53% 0.00in /  0mm 663 W/m2
Knjazevac, Serbia
Compliments of Weather Underground - 2 mb